createdAt,value
2018-07-05T00:02:32.155Z,15.93
2018-07-05T00:05:12.869Z,15.97
2018-07-05T00:07:53.451Z,16.04
2018-07-05T00:10:34.220Z,15.89
2018-07-05T00:13:14.798Z,15.79
2018-07-05T00:15:56.081Z,15.77
2018-07-05T00:18:36.523Z,15.58
2018-07-05T00:21:17.619Z,15.72
2018-07-05T00:23:57.918Z,15.66
2018-07-05T00:26:38.220Z,15.61
2018-07-05T00:29:18.501Z,15.52
2018-07-05T00:31:59.859Z,15.58
2018-07-05T00:34:40.029Z,15.56
2018-07-05T00:37:20.190Z,15.46
2018-07-05T00:40:00.647Z,15.29
2018-07-05T00:42:41.236Z,15.33
2018-07-05T00:45:21.655Z,15.29
2018-07-05T00:48:02.019Z,15.23
2018-07-05T00:50:42.616Z,15.29
2018-07-05T00:53:23.535Z,15.17
2018-07-05T00:56:04.504Z,15.23
2018-07-05T00:58:44.738Z,15.29
2018-07-05T01:01:26.282Z,15.08
2018-07-05T01:04:06.783Z,15.00
2018-07-05T01:06:46.711Z,15.06
2018-07-05T01:09:28.317Z,14.85
2018-07-05T01:12:08.308Z,14.92
2018-07-05T01:14:48.810Z,15.03
2018-07-05T01:17:28.973Z,15.14
2018-07-05T01:20:09.375Z,15.04
2018-07-05T01:22:49.801Z,14.93
2018-07-05T01:25:30.278Z,14.79
2018-07-05T01:28:10.316Z,14.86
2018-07-05T01:30:50.253Z,14.60
2018-07-05T01:33:30.722Z,14.74
2018-07-05T01:36:12.149Z,14.74
2018-07-05T01:38:52.361Z,14.79
2018-07-05T01:41:32.451Z,14.76
2018-07-05T01:44:12.949Z,14.75
2018-07-05T01:46:53.226Z,14.69
2018-07-05T01:49:33.175Z,14.56
2018-07-05T01:52:13.763Z,14.48
2018-07-05T01:54:55.556Z,14.58
2018-07-05T01:57:35.875Z,14.54
2018-07-05T02:00:16.481Z,14.49
2018-07-05T02:02:56.517Z,14.33
2018-07-05T02:05:36.718Z,14.29
2018-07-05T02:08:16.822Z,14.10
2018-07-05T02:10:57.077Z,14.28
2018-07-05T02:13:37.396Z,14.36
2018-07-05T02:16:17.409Z,14.33
2018-07-05T02:18:57.938Z,14.14
2018-07-05T02:21:38.310Z,14.19
2018-07-05T02:24:18.561Z,14.16
2018-07-05T02:26:58.969Z,14.12
2018-07-05T02:29:40.798Z,14.04
2018-07-05T02:32:21.210Z,13.92
2018-07-05T02:35:01.570Z,13.98
2018-07-05T02:37:46.869Z,13.93
2018-07-05T02:40:27.084Z,13.97
2018-07-05T02:43:06.851Z,13.94
2018-07-05T02:45:48.236Z,13.81
2018-07-05T02:48:28.705Z,13.55
2018-07-05T02:51:09.276Z,13.72
2018-07-05T02:53:49.494Z,13.74
2018-07-05T02:56:29.997Z,13.86
2018-07-05T02:59:10.361Z,13.72
2018-07-05T03:01:52.330Z,13.69
2018-07-05T03:04:32.519Z,13.76
2018-07-05T03:07:13.206Z,13.69
2018-07-05T03:09:53.565Z,13.60
2018-07-05T03:12:34.162Z,13.63
2018-07-05T03:15:16.050Z,13.49
2018-07-05T03:17:57.222Z,13.62
2018-07-05T03:20:37.540Z,13.71
2018-07-05T03:23:17.996Z,13.64
2018-07-05T03:25:58.108Z,13.58
2018-07-05T03:28:38.218Z,13.60
2018-07-05T03:31:18.127Z,13.49
2018-07-05T03:33:58.004Z,13.53
2018-07-05T03:36:38.023Z,13.53
2018-07-05T03:39:18.007Z,13.38
2018-07-05T03:41:58.243Z,13.51
2018-07-05T03:44:38.515Z,13.62
2018-07-05T03:47:18.704Z,13.46
2018-07-05T03:49:58.577Z,13.60
2018-07-05T03:52:38.806Z,13.58
2018-07-05T03:55:19.027Z,13.49
2018-07-05T03:57:59.765Z,13.45
2018-07-05T04:00:40.119Z,13.56
2018-07-05T04:03:20.120Z,13.53
2018-07-05T04:06:00.996Z,13.41
2018-07-05T04:08:41.052Z,13.26
2018-07-05T04:11:20.996Z,13.21
2018-07-05T04:14:01.589Z,13.32
2018-07-05T04:16:42.027Z,13.36
2018-07-05T04:19:22.057Z,13.26
2018-07-05T04:22:02.220Z,13.20
2018-07-05T04:24:42.085Z,13.30
2018-07-05T04:27:22.186Z,13.10
2018-07-05T04:30:02.494Z,13.20
2018-07-05T04:32:42.718Z,13.26
2018-07-05T04:35:22.780Z,13.31
2018-07-05T04:38:02.821Z,13.33
2018-07-05T04:40:42.794Z,13.38
2018-07-05T04:43:22.831Z,13.38
2018-07-05T04:46:02.627Z,13.49
2018-07-05T04:48:43.164Z,13.62
2018-07-05T04:51:23.337Z,13.83
2018-07-05T04:54:03.221Z,14.29
2018-07-05T04:56:43.248Z,14.55
2018-07-05T04:59:23.637Z,14.74
2018-07-05T05:02:03.543Z,14.68
2018-07-05T05:04:43.645Z,15.02
2018-07-05T05:07:23.748Z,15.30
2018-07-05T05:10:03.931Z,15.70
2018-07-05T05:12:43.951Z,16.05
2018-07-05T05:15:23.912Z,16.41
2018-07-05T05:18:04.162Z,16.67
2018-07-05T05:20:44.199Z,16.74
2018-07-05T05:23:24.539Z,16.95
2018-07-05T05:26:05.242Z,17.15
2018-07-05T05:28:45.437Z,16.65
2018-07-05T05:31:25.343Z,16.78
2018-07-05T05:34:05.501Z,17.12
2018-07-05T05:36:45.826Z,17.48
2018-07-05T05:39:25.828Z,17.69
2018-07-05T05:42:06.193Z,17.76
2018-07-05T05:44:46.638Z,17.64
2018-07-05T05:47:26.802Z,17.91
2018-07-05T05:50:06.827Z,17.79
2018-07-05T05:52:46.923Z,17.71
2018-07-05T05:55:26.953Z,17.48
2018-07-05T05:58:06.962Z,17.62
2018-07-05T06:00:47.046Z,17.81
2018-07-05T06:03:27.269Z,17.50
2018-07-05T06:06:07.472Z,18.13
2018-07-05T06:08:47.498Z,18.12
2018-07-05T06:11:27.586Z,17.49
2018-07-05T06:14:08.109Z,17.61
2018-07-05T06:16:48.097Z,18.49
2018-07-05T06:19:28.281Z,18.42
2018-07-05T06:22:08.419Z,17.76
2018-07-05T06:24:48.643Z,18.42
2018-07-05T06:27:29.090Z,18.96
2018-07-05T06:30:09.186Z,18.93
2018-07-05T06:32:49.607Z,18.90
2018-07-05T06:35:30.203Z,18.81
2018-07-05T06:38:10.522Z,19.51
2018-07-05T06:40:50.550Z,19.41
2018-07-05T06:43:30.657Z,19.90
2018-07-05T06:46:10.692Z,20.25
2018-07-05T06:48:50.974Z,20.22
2018-07-05T06:51:30.782Z,20.53
2018-07-05T06:54:10.678Z,20.56
2018-07-05T06:56:50.887Z,21.24
2018-07-05T06:59:30.935Z,21.06
2018-07-05T07:02:11.285Z,21.64
2018-07-05T07:04:51.443Z,21.93
2018-07-05T07:07:31.407Z,22.18
2018-07-05T07:10:12.160Z,21.51
2018-07-05T07:12:52.586Z,21.03
2018-07-05T07:15:33.145Z,20.92
2018-07-05T07:18:13.263Z,20.30
2018-07-05T07:20:53.350Z,20.76
2018-07-05T07:23:33.513Z,20.88
2018-07-05T07:26:13.877Z,21.17
2018-07-05T07:28:54.231Z,20.97
2018-07-05T07:31:35.408Z,21.08
2018-07-05T07:34:15.418Z,21.05
2018-07-05T07:36:56.081Z,21.17
2018-07-05T07:39:36.278Z,21.35
2018-07-05T07:42:03.832Z,21.80
2018-07-05T07:44:31.534Z,21.38
2018-07-05T07:46:59.178Z,21.94
2018-07-05T07:49:26.812Z,22.08
2018-07-05T07:51:54.799Z,22.15
2018-07-05T07:54:22.580Z,22.17
2018-07-05T07:56:50.279Z,22.61
2018-07-05T07:59:18.207Z,22.36
2018-07-05T08:01:45.951Z,22.52
2018-07-05T08:04:13.936Z,22.44
2018-07-05T08:06:41.710Z,22.32
2018-07-05T08:09:09.458Z,22.51
2018-07-05T08:11:38.051Z,22.89
2018-07-05T08:14:06.231Z,22.89
2018-07-05T08:16:34.094Z,22.73
2018-07-05T08:19:02.067Z,22.35
2018-07-05T08:21:29.825Z,22.98
2018-07-05T08:23:57.867Z,22.93
2018-07-05T08:26:26.076Z,23.19
2018-07-05T08:28:55.391Z,23.67
2018-07-05T08:31:23.262Z,23.84
2018-07-05T08:33:51.535Z,23.86
2018-07-05T08:36:19.506Z,23.43
2018-07-05T08:38:47.256Z,24.04
2018-07-05T08:41:15.363Z,24.09
2018-07-05T08:43:43.194Z,24.05
2018-07-05T08:46:12.365Z,24.43
2018-07-05T08:48:40.255Z,24.29
2018-07-05T08:51:08.432Z,23.43
2018-07-05T08:53:36.200Z,23.79
2018-07-05T08:56:03.933Z,23.89
2018-07-05T08:58:31.703Z,23.99
2018-07-05T09:00:59.392Z,24.03
2018-07-05T09:03:27.255Z,24.64
2018-07-05T09:05:54.918Z,24.86
2018-07-05T09:08:22.620Z,24.83
2018-07-05T09:10:50.400Z,25.01
2018-07-05T09:13:18.113Z,24.73
2018-07-05T09:15:45.721Z,24.82
2018-07-05T09:18:13.731Z,24.76
2018-07-05T09:20:41.602Z,24.59
2018-07-05T09:23:09.415Z,24.81
2018-07-05T09:25:37.014Z,25.34
2018-07-05T09:28:04.701Z,25.25
2018-07-05T09:30:32.375Z,25.59
2018-07-05T09:33:00.044Z,25.36
2018-07-05T09:35:27.800Z,25.44
2018-07-05T09:37:56.215Z,24.90
2018-07-05T09:40:23.954Z,25.57
2018-07-05T09:42:52.295Z,25.32
2018-07-05T09:45:20.390Z,25.46
2018-07-05T09:47:48.102Z,25.89
2018-07-05T09:50:15.914Z,26.27
2018-07-05T09:52:43.767Z,26.29
2018-07-05T09:55:11.654Z,26.58
2018-07-05T09:57:40.041Z,26.87
2018-07-05T10:00:09.639Z,26.84
2018-07-05T10:02:37.420Z,26.38
2018-07-05T10:05:05.028Z,26.78
2018-07-05T10:07:33.056Z,27.11
2018-07-05T10:10:00.777Z,27.04
2018-07-05T10:12:29.077Z,26.63
2018-07-05T10:14:56.792Z,27.04
2018-07-05T10:17:24.456Z,26.94
2018-07-05T10:19:52.266Z,27.11
2018-07-05T10:22:19.796Z,27.40
2018-07-05T10:24:47.720Z,27.50
2018-07-05T10:27:15.335Z,27.44
2018-07-05T10:29:55.334Z,27.50
2018-07-05T10:32:35.488Z,27.89
2018-07-05T10:35:03.224Z,27.37
2018-07-05T10:37:30.959Z,27.19
2018-07-05T10:40:11.347Z,27.58
2018-07-05T10:42:51.550Z,28.18
2018-07-05T10:45:31.468Z,28.10
2018-07-05T10:48:11.574Z,27.74
2018-07-05T10:50:51.594Z,28.13
2018-07-05T10:53:31.685Z,28.32
2018-07-05T10:56:11.718Z,28.57
2018-07-05T10:58:51.613Z,28.87
2018-07-05T11:01:31.603Z,28.84
2018-07-05T11:04:11.961Z,28.70
2018-07-05T11:06:52.825Z,28.40
2018-07-05T11:09:33.159Z,28.44
2018-07-05T11:12:13.257Z,28.52
2018-07-05T11:14:54.043Z,28.79
2018-07-05T11:17:34.141Z,28.45
2018-07-05T11:20:14.047Z,28.53
2018-07-05T11:22:54.175Z,28.99
2018-07-05T11:25:34.106Z,28.71
2018-07-05T11:28:13.988Z,28.36
2018-07-05T11:30:53.911Z,28.94
2018-07-05T11:33:34.140Z,29.23
2018-07-05T11:36:14.575Z,28.94
2018-07-05T11:38:54.855Z,29.35
2018-07-05T11:41:35.029Z,29.27
2018-07-05T11:44:15.130Z,29.25
2018-07-05T11:46:55.045Z,29.24
2018-07-05T11:49:35.113Z,29.33
2018-07-05T11:52:15.168Z,29.13
2018-07-05T11:54:55.210Z,29.20
2018-07-05T11:57:35.196Z,29.36
2018-07-05T12:00:15.433Z,29.61
2018-07-05T12:02:55.364Z,29.26
2018-07-05T12:05:35.316Z,29.49
2018-07-05T12:08:15.754Z,29.71
2018-07-05T12:10:56.023Z,29.87
2018-07-05T12:13:36.259Z,30.01
2018-07-05T12:16:16.319Z,30.02
2018-07-05T12:18:56.281Z,30.30
2018-07-05T12:21:36.367Z,30.27
2018-07-05T12:24:16.306Z,30.35
2018-07-05T12:26:56.658Z,30.41
2018-07-05T12:29:36.893Z,30.36
2018-07-05T12:32:16.879Z,30.70
2018-07-05T12:34:57.045Z,30.83
2018-07-05T12:37:37.093Z,30.39
2018-07-05T12:40:17.735Z,30.81
2018-07-05T12:42:57.821Z,31.01
2018-07-05T12:45:37.918Z,31.04
2018-07-05T12:48:18.789Z,31.00
2018-07-05T12:50:58.678Z,31.15
2018-07-05T12:53:39.221Z,31.18
2018-07-05T12:56:19.598Z,31.32
2018-07-05T12:58:59.533Z,31.14
2018-07-05T13:01:40.881Z,31.23
2018-07-05T13:04:20.719Z,31.28
2018-07-05T13:07:00.632Z,31.52
2018-07-05T13:09:40.357Z,31.15
2018-07-05T13:12:20.295Z,31.37
2018-07-05T13:15:00.156Z,30.65
2018-07-05T13:17:40.239Z,30.50
2018-07-05T13:20:20.329Z,30.10
2018-07-05T13:23:00.324Z,29.84
2018-07-05T13:25:40.062Z,29.65
2018-07-05T13:28:19.942Z,29.41
2018-07-05T13:30:59.967Z,29.40
2018-07-05T13:33:44.110Z,29.42
2018-07-05T13:36:24.222Z,28.98
2018-07-05T13:39:05.115Z,28.98
2018-07-05T13:41:45.097Z,28.99
2018-07-05T13:44:25.265Z,28.99
2018-07-05T13:47:05.626Z,28.93
2018-07-05T13:49:45.865Z,28.87
2018-07-05T13:52:25.899Z,28.98
2018-07-05T13:55:06.085Z,29.07
2018-07-05T13:57:47.109Z,29.07
2018-07-05T14:00:28.201Z,29.26
2018-07-05T14:03:08.386Z,29.61
2018-07-05T14:05:49.080Z,30.13
2018-07-05T14:08:29.682Z,29.96
2018-07-05T14:11:09.782Z,29.73
2018-07-05T14:13:51.159Z,29.58
2018-07-05T14:16:31.327Z,29.43
2018-07-05T14:19:12.197Z,29.63
2018-07-05T14:21:52.539Z,29.66
2018-07-05T14:24:32.558Z,29.35
2018-07-05T14:27:12.563Z,28.57
2018-07-05T14:29:53.086Z,28.73
2018-07-05T14:32:33.280Z,28.99
2018-07-05T14:35:13.537Z,28.97
2018-07-05T14:37:54.665Z,28.95
2018-07-05T14:40:34.932Z,29.03
2018-07-05T14:43:14.833Z,29.15
2018-07-05T14:45:55.348Z,29.55
2018-07-05T14:48:35.450Z,30.04
2018-07-05T14:51:15.567Z,29.85
2018-07-05T14:53:55.431Z,30.00
2018-07-05T14:56:35.562Z,29.67
2018-07-05T14:59:15.989Z,29.31
2018-07-05T15:01:56.130Z,29.17
2018-07-05T15:04:36.974Z,28.74
2018-07-05T15:07:17.234Z,28.64
2018-07-05T15:09:57.728Z,28.49
2018-07-05T15:12:37.665Z,28.33
2018-07-05T15:15:17.829Z,28.12
2018-07-05T15:17:58.143Z,27.60
2018-07-05T15:20:38.450Z,27.43
2018-07-05T15:23:18.375Z,27.25
2018-07-05T15:25:59.459Z,27.28
2018-07-05T15:28:39.624Z,27.00
2018-07-05T15:31:19.859Z,26.35
2018-07-05T15:34:01.035Z,24.99
2018-07-05T15:36:41.187Z,23.61
2018-07-05T15:39:21.619Z,23.23
2018-07-05T15:42:01.813Z,22.72
2018-07-05T15:44:42.452Z,22.50
2018-07-05T15:47:22.970Z,22.42
2018-07-05T15:50:03.377Z,22.17
2018-07-05T15:52:43.959Z,21.96
2018-07-05T15:55:24.771Z,21.95
2018-07-05T15:58:05.614Z,22.01
2018-07-05T16:00:45.873Z,21.78
2018-07-05T16:03:26.223Z,21.75
2018-07-05T16:06:07.181Z,21.56
2018-07-05T16:08:47.551Z,21.69
2018-07-05T16:11:27.426Z,21.55
2018-07-05T16:14:07.672Z,21.27
2018-07-05T16:16:48.566Z,20.95
2018-07-05T16:19:28.791Z,21.22
2018-07-05T16:22:09.214Z,21.18
2018-07-05T16:24:50.777Z,20.78
2018-07-05T16:27:31.672Z,20.98
2018-07-05T16:30:12.136Z,20.90
2018-07-05T16:32:52.760Z,20.70
2018-07-05T16:35:33.212Z,19.70
2018-07-05T16:38:13.338Z,19.80
2018-07-05T16:40:53.726Z,20.06
2018-07-05T16:43:33.811Z,20.01
2018-07-05T16:46:13.960Z,19.98
2018-07-05T16:48:54.362Z,19.61
2018-07-05T16:51:35.522Z,19.55
2018-07-05T16:54:15.932Z,19.70
2018-07-05T16:56:57.224Z,19.55
2018-07-05T16:59:37.363Z,19.79
2018-07-05T17:02:17.324Z,19.87
2018-07-05T17:04:57.796Z,19.65
2018-07-05T17:07:39.112Z,19.87
2018-07-05T17:10:20.169Z,19.96
2018-07-05T17:13:01.703Z,19.96
2018-07-05T17:15:42.050Z,19.65
2018-07-05T17:18:23.450Z,19.24
2018-07-05T17:21:03.539Z,19.25
2018-07-05T17:23:44.058Z,19.61
2018-07-05T17:26:24.401Z,19.70
2018-07-05T17:29:04.952Z,19.51
2018-07-05T17:31:44.879Z,19.53
2018-07-05T17:34:25.169Z,19.51
2018-07-05T17:37:06.589Z,19.78
2018-07-05T17:39:47.297Z,19.71
2018-07-05T17:42:27.705Z,19.54
2018-07-05T17:45:07.889Z,19.55
2018-07-05T17:47:48.358Z,19.44
2018-07-05T17:50:28.763Z,19.24
2018-07-05T17:53:09.543Z,19.33
2018-07-05T17:55:50.478Z,19.12
2018-07-05T17:58:31.227Z,19.27
2018-07-05T18:01:11.855Z,19.42
2018-07-05T18:03:52.479Z,19.42
2018-07-05T18:06:33.996Z,19.51
2018-07-05T18:09:13.983Z,19.34
2018-07-05T18:11:54.291Z,19.25
2018-07-05T18:14:34.120Z,19.19
2018-07-05T18:17:14.069Z,19.31
2018-07-05T18:19:53.932Z,18.98
2018-07-05T18:22:33.876Z,19.03
2018-07-05T18:25:14.124Z,18.66
2018-07-05T18:27:54.268Z,18.94
2018-07-05T18:30:34.617Z,18.94
2018-07-05T18:33:14.585Z,18.83
2018-07-05T18:35:54.756Z,18.65
2018-07-05T18:38:34.783Z,18.50
2018-07-05T18:41:14.841Z,18.55
2018-07-05T18:43:55.141Z,18.54
2018-07-05T18:46:35.574Z,18.67
2018-07-05T18:49:16.495Z,18.50
2018-07-05T18:51:57.047Z,18.38
2018-07-05T18:54:38.930Z,18.17
2018-07-05T18:57:19.287Z,18.29
2018-07-05T18:59:59.926Z,18.22
2018-07-05T19:02:41.189Z,18.18
2018-07-05T19:05:23.098Z,18.14
2018-07-05T19:08:03.489Z,18.12
2018-07-05T19:10:45.828Z,17.78
2018-07-05T19:13:26.147Z,17.98
2018-07-05T19:16:06.430Z,18.11
2018-07-05T19:18:47.111Z,18.24
2018-07-05T19:21:31.771Z,18.10
2018-07-05T19:24:12.229Z,18.17
2018-07-05T19:26:52.538Z,18.26
2018-07-05T19:29:32.917Z,18.13
2018-07-05T19:32:14.336Z,18.31
2018-07-05T19:34:55.422Z,18.08
2018-07-05T19:37:36.150Z,18.27
2018-07-05T19:40:20.412Z,18.18
2018-07-05T19:43:00.949Z,17.91
2018-07-05T19:45:41.512Z,18.17
2018-07-05T19:48:21.942Z,18.12
2018-07-05T19:51:02.028Z,18.17
2018-07-05T19:53:42.295Z,18.21
2018-07-05T19:56:22.309Z,18.18
2018-07-05T19:59:03.111Z,17.98
2018-07-05T20:01:43.528Z,17.98
2018-07-05T20:04:23.995Z,17.98
2018-07-05T20:07:04.263Z,18.01
2018-07-05T20:09:44.345Z,17.94
2018-07-05T20:12:24.294Z,17.87
2018-07-05T20:15:04.730Z,17.99
2018-07-05T20:17:45.737Z,17.96
2018-07-05T20:20:26.612Z,17.82
2018-07-05T20:23:07.591Z,17.56
2018-07-05T20:25:47.520Z,17.72
2018-07-05T20:28:27.615Z,17.57
2018-07-05T20:31:08.948Z,17.59
2018-07-05T20:33:48.947Z,17.67
2018-07-05T20:36:29.386Z,17.62
2018-07-05T20:39:10.419Z,17.73
2018-07-05T20:41:50.904Z,17.62
2018-07-05T20:44:32.119Z,17.38
2018-07-05T20:47:11.953Z,17.12
2018-07-05T20:49:51.869Z,17.13
2018-07-05T20:52:32.180Z,17.14
2018-07-05T20:55:12.171Z,17.20
2018-07-05T20:57:52.188Z,17.24
2018-07-05T21:00:32.215Z,17.34
2018-07-05T21:03:12.508Z,17.20
2018-07-05T21:05:52.418Z,17.36
2018-07-05T21:08:32.290Z,17.31
2018-07-05T21:11:12.142Z,17.30
2018-07-05T21:13:52.959Z,17.26
2018-07-05T21:16:33.137Z,17.30
2018-07-05T21:19:13.305Z,17.23
2018-07-05T21:21:53.525Z,17.19
2018-07-05T21:24:33.596Z,17.16
2018-07-05T21:27:13.611Z,17.27
2018-07-05T21:29:53.731Z,17.37
2018-07-05T21:32:33.842Z,17.42
2018-07-05T21:35:13.729Z,17.48
2018-07-05T21:37:53.686Z,17.33
2018-07-05T21:40:33.714Z,17.11
2018-07-05T21:43:13.875Z,17.19
2018-07-05T21:45:53.933Z,17.23
2018-07-05T21:48:34.102Z,17.22
2018-07-05T21:51:14.045Z,17.09
2018-07-05T21:53:54.258Z,17.15
2018-07-05T21:56:35.600Z,17.20
2018-07-05T21:59:15.424Z,17.27
2018-07-05T22:01:55.440Z,17.25
2018-07-05T22:04:36.034Z,17.28
2018-07-05T22:07:16.233Z,17.19
2018-07-05T22:09:56.431Z,17.24
2018-07-05T22:12:36.286Z,17.31
2018-07-05T22:15:17.366Z,17.21
2018-07-05T22:18:02.347Z,17.21
2018-07-05T22:20:47.726Z,17.06
2018-07-05T22:23:32.973Z,17.07
2018-07-05T22:26:18.687Z,17.17
2018-07-05T22:29:04.078Z,17.15
2018-07-05T22:31:45.201Z,17.13
2018-07-05T22:34:25.605Z,17.16
2018-07-05T22:37:05.953Z,17.25
2018-07-05T22:39:46.337Z,17.23
2018-07-05T22:42:26.481Z,17.03
2018-07-05T22:45:07.392Z,17.13
2018-07-05T22:47:47.571Z,17.18
2018-07-05T22:50:27.857Z,17.16
2018-07-05T22:53:07.667Z,17.14
2018-07-05T22:55:47.867Z,17.15
2018-07-05T22:58:29.002Z,17.19
2018-07-05T23:01:08.942Z,17.10
2018-07-05T23:03:48.794Z,17.27
2018-07-05T23:06:28.986Z,17.27
2018-07-05T23:09:09.062Z,17.04
2018-07-05T23:11:49.216Z,17.12
2018-07-05T23:14:29.366Z,17.11
2018-07-05T23:17:09.389Z,17.01
2018-07-05T23:19:49.186Z,17.06
2018-07-05T23:22:29.072Z,16.94
2018-07-05T23:25:09.270Z,16.99
2018-07-05T23:27:49.324Z,17.03
2018-07-05T23:30:29.392Z,17.15
2018-07-05T23:33:09.547Z,17.15
2018-07-05T23:35:49.523Z,17.12
2018-07-05T23:38:29.452Z,17.10
2018-07-05T23:41:09.551Z,17.09
2018-07-05T23:43:49.747Z,17.10
2018-07-05T23:46:29.700Z,17.12
2018-07-05T23:49:09.812Z,17.10
2018-07-05T23:51:50.313Z,17.04
2018-07-05T23:54:30.466Z,17.03
2018-07-05T23:57:10.615Z,17.05
2018-07-05T23:59:50.527Z,17.02
